Prewitt, New Mexico
Current Conditions -  °F | °C
As of 7:57 PM on Sunday 23 Nov 2014 (Local Time) from KGNT Reporting Station
Clear Clear  
Wind Chill: 18°   Ceiling: Unl
Heat Index: 30°   Visibility: 10mi
Dew Point:   Wind: 17mph
Humidity: 32%   Direction: 310°NW
Pressure: 30.09"   Gusts: 25mph
Location:  35.36°N, 108.04°W
Report Text: KGNT 240257Z AUTO 31015G22KT 10SM CLR M01/M16 A3009 RMK AO2
Loading
Personal Weather Stations






























Interactive Weather Map New forecast layout! Learn more

10-Day Weather Forecast

Advertisements
Track Severe Weather on mobile